Item Display Status Serial CT Sensor

Mooring Depth: 1 m

 

Deployed Sensor

  • Serial Number: 8808
  • NDBC Property Number: 35223
  • Start Date: 4/17/2018 (14:16:36 Z)
  • End Date: Currently Active
Water Temperature [°C]     6 entries per hour
Showing data from 12/28/2019 (10:10:00 Z) to 12/27/2019 (00:00:01 Z)
Previous Next [ Day | 3-Days | 7-Days ]
First Last
Prev [ Day | 3-Days | 7-Days ] Next
First Last

Start Time:     :
End Time:     :     
Time (in GMT) :00 :50 :40 :30 :20 :10
Previous Next [ Day | 3-Days | 7-Days ]
First Last
Prev [ Day | 3-Days | 7-Days ] Next
First Last


123 => good data
MM => data is determined as missing
-- => data not received/configured
Back to Top Back to Top
12/28/2019 11:00 to 10:10 -- -- -- -- -- 28.546
12/28/2019 10:00 to 9:10 28.550 28.548 28.550 28.563 28.555 28.560
12/28/2019 09:00 to 8:10 28.560 28.556 28.564 28.567 28.562 28.574
12/28/2019 08:00 to 7:10 28.581 28.570 28.561 28.571 28.569 28.571
12/28/2019 07:00 to 6:10 28.582 28.581 28.585 28.582 28.579 28.587
12/28/2019 06:00 to 5:10 28.597 28.598 28.608 28.601 28.604 28.621
12/28/2019 05:00 to 4:10 28.619 28.629 28.633 28.646 28.654 28.676
12/28/2019 04:00 to 3:10 28.680 28.687 28.697 28.701 28.715 28.739
12/28/2019 03:00 to 2:10 28.726 28.723 28.719 28.702 28.686 28.705
12/28/2019 02:00 to 1:10 28.705 28.680 28.684 28.682 28.673 28.674
12/28/2019 01:00 to 0:10 28.669 28.669 28.689 28.655 28.656 28.655
12/28/2019 00:00 to 23:10 28.649 28.631 28.635 28.619 28.626 --
12/27/2019 23:00 to 22:10 28.614 28.595 28.598 28.579 28.565 28.554
12/27/2019 22:00 to 21:10 28.548 28.543 28.519 28.522 28.523 28.512
12/27/2019 21:00 to 20:10 28.508 28.496 28.490 28.486 28.479 28.480
12/27/2019 20:00 to 19:10 28.476 28.476 28.476 28.472 28.472 28.470
12/27/2019 19:00 to 18:10 28.466 28.466 28.463 28.465 28.455 28.456
12/27/2019 18:00 to 17:10 28.463 28.458 28.450 28.462 28.452 28.459
12/27/2019 17:00 to 16:10 28.455 28.456 28.445 28.454 28.455 28.459
12/27/2019 16:00 to 15:10 28.461 28.461 28.455 28.460 28.464 28.463
12/27/2019 15:00 to 14:10 28.467 28.462 28.466 28.468 28.472 28.476
12/27/2019 14:00 to 13:10 28.466 28.473 28.471 28.468 28.474 28.470
12/27/2019 13:00 to 12:10 28.471 28.465 28.477 28.477 28.478 28.469
12/27/2019 12:00 to 11:10 28.473 28.480 28.476 28.494 28.494 28.499
12/27/2019 11:00 to 10:10 28.500 28.503 28.513 28.509 28.519 28.521
12/27/2019 10:00 to 9:10 28.520 28.523 28.525 28.530 28.529 28.528
12/27/2019 09:00 to 8:10 28.526 28.531 28.549 28.548 28.553 28.558
12/27/2019 08:00 to 7:10 28.562 28.571 28.563 28.571 28.576 28.578
12/27/2019 07:00 to 6:10 28.583 28.603 28.608 28.612 28.626 28.626
12/27/2019 06:00 to 5:10 28.641 28.655 28.662 28.661 28.674 28.688
12/27/2019 05:00 to 4:10 28.690 28.709 28.691 28.704 28.696 28.700
12/27/2019 04:00 to 3:10 28.703 28.698 28.688 28.683 28.689 28.692
12/27/2019 03:00 to 2:10 28.691 28.692 28.705 28.713 28.692 28.711
12/27/2019 02:00 to 1:10 28.710 28.707 28.705 28.697 28.696 28.670
12/27/2019 01:00 to 0:10 28.653 28.667 28.661 28.652 28.648 28.653

 

 

 

Conductivity [S/m]     6 entries per hour
Showing data from 12/28/2019 (10:10:00 Z) to 12/27/2019 (00:00:01 Z)
Previous Next [ Day | 3-Days | 7-Days ]
First Last
Prev [ Day | 3-Days | 7-Days ] Next
First Last

Start Time:     :
End Time:     :     
Time (in GMT) :00 :50 :40 :30 :20 :10
Previous Next [ Day | 3-Days | 7-Days ]
First Last
Prev [ Day | 3-Days | 7-Days ] Next
First Last


123 => good data
MM => data is determined as missing
-- => data not received/configured
Back to Top Back to Top
12/28/2019 11:00 to 10:10 -- -- -- -- -- 5.72146
12/28/2019 10:00 to 9:10 5.72180 5.72192 5.72205 5.72318 5.72252 5.72302
12/28/2019 09:00 to 8:10 5.72289 5.72258 5.72342 5.72361 5.72313 5.72433
12/28/2019 08:00 to 7:10 5.72524 5.72394 5.72309 5.72410 5.72383 5.72431
12/28/2019 07:00 to 6:10 5.72521 5.72529 5.72562 5.72540 5.72500 5.72593
12/28/2019 06:00 to 5:10 5.72692 5.72714 5.72798 5.72749 5.72753 5.72961
12/28/2019 05:00 to 4:10 5.72927 5.73088 5.73075 5.73244 5.73341 5.73574
12/28/2019 04:00 to 3:10 5.73591 5.73684 5.73835 5.73860 5.74015 5.74291
12/28/2019 03:00 to 2:10 5.74126 5.74095 5.74032 5.73860 5.73697 5.73909
12/28/2019 02:00 to 1:10 5.73913 5.73632 5.73686 5.73673 5.73542 5.73573
12/28/2019 01:00 to 0:10 5.73521 5.73509 5.73735 5.73368 5.73381 5.73377
12/28/2019 00:00 to 23:10 5.73304 5.73127 5.73173 5.72985 5.73059 5.72951
12/27/2019 23:00 to 22:10 5.72958 5.72739 5.72774 5.72540 5.72385 5.72288
12/27/2019 22:00 to 21:10 5.72213 5.72172 5.71904 5.71925 5.71944 5.71844
12/27/2019 21:00 to 20:10 5.71744 5.71636 5.71570 5.71536 5.71452 5.71462
12/27/2019 20:00 to 19:10 5.71417 5.71426 5.71426 5.71363 5.71371 5.71364
12/27/2019 19:00 to 18:10 5.71302 5.71302 5.71277 5.71298 5.71200 5.71191
12/27/2019 18:00 to 17:10 5.71269 5.71218 5.71132 5.71257 5.71182 5.71236
12/27/2019 17:00 to 16:10 5.71190 5.71182 5.71071 5.71194 5.71185 5.71228
12/27/2019 16:00 to 15:10 5.71251 5.71250 5.71194 5.71240 5.71294 5.71267
12/27/2019 15:00 to 14:10 5.71325 5.71269 5.71298 5.71331 5.71362 5.71397
12/27/2019 14:00 to 13:10 5.71310 5.71374 5.71362 5.71325 5.71380 5.71298
12/27/2019 13:00 to 12:10 5.71362 5.71290 5.71404 5.71413 5.71417 5.71322
12/27/2019 12:00 to 11:10 5.71360 5.71434 5.71400 5.71591 5.71590 5.71651
12/27/2019 11:00 to 10:10 5.71650 5.71702 5.71794 5.71753 5.71867 5.71889
12/27/2019 10:00 to 9:10 5.71879 5.71894 5.71889 5.71986 5.71952 5.71956
12/27/2019 09:00 to 8:10 5.71915 5.71976 5.72183 5.72156 5.72195 5.72285
12/27/2019 08:00 to 7:10 5.72305 5.72390 5.72319 5.72363 5.72465 5.72463
12/27/2019 07:00 to 6:10 5.72550 5.72771 5.72824 5.72861 5.73018 5.73037
12/27/2019 06:00 to 5:10 5.73181 5.73344 5.73408 5.73408 5.73540 5.73689
12/27/2019 05:00 to 4:10 5.73727 5.73930 5.73735 5.73872 5.73782 5.73811
12/27/2019 04:00 to 3:10 5.73862 5.73809 5.73675 5.73646 5.73695 5.73732
12/27/2019 03:00 to 2:10 5.73710 5.73727 5.73892 5.73965 5.73717 5.73965
12/27/2019 02:00 to 1:10 5.73910 5.73920 5.73895 5.73808 5.73810 5.73482
12/27/2019 01:00 to 0:10 5.73305 5.73448 5.73396 5.73304 5.73247 5.73302

 

 

 

Salinity [psu]     6 entries per hour
Showing data from 12/28/2019 (10:10:00 Z) to 12/27/2019 (00:00:01 Z)
Previous Next [ Day | 3-Days | 7-Days ]
First Last
Prev [ Day | 3-Days | 7-Days ] Next
First Last

Start Time:     :
End Time:     :     
Time (in GMT) :00 :50 :40 :30 :20 :10
Previous Next [ Day | 3-Days | 7-Days ]
First Last
Prev [ Day | 3-Days | 7-Days ] Next
First Last


123 => good data
MM => data is determined as missing
-- => data not received/configured
Back to Top Back to Top
12/28/2019 11:00 to 10:10 -- -- -- -- -- 35.28
12/28/2019 10:00 to 9:10 35.28 35.28 35.28 35.28 35.28 35.28
12/28/2019 09:00 to 8:10 35.28 35.28 35.28 35.28 35.28 35.28
12/28/2019 08:00 to 7:10 35.28 35.28 35.28 35.28 35.28 35.28
12/28/2019 07:00 to 6:10 35.28 35.28 35.28 35.28 35.28 35.28
12/28/2019 06:00 to 5:10 35.28 35.28 35.28 35.28 35.28 35.28
12/28/2019 05:00 to 4:10 35.28 35.29 35.28 35.28 35.29 35.29
12/28/2019 04:00 to 3:10 35.28 35.28 35.29 35.29 35.29 35.29
12/28/2019 03:00 to 2:10 35.29 35.29 35.29 35.29 35.29 35.29
12/28/2019 02:00 to 1:10 35.29 35.29 35.29 35.29 35.29 35.29
12/28/2019 01:00 to 0:10 35.29 35.29 35.29 35.29 35.29 35.29
12/28/2019 00:00 to 23:10 35.29 35.29 35.29 35.29 35.29 --
12/27/2019 23:00 to 22:10 35.29 35.29 35.29 35.29 35.29 35.29
12/27/2019 22:00 to 21:10 35.29 35.29 35.29 35.29 35.29 35.29
12/27/2019 21:00 to 20:10 35.28 35.28 35.28 35.29 35.28 35.28
12/27/2019 20:00 to 19:10 35.28 35.28 35.28 35.28 35.28 35.28
12/27/2019 19:00 to 18:10 35.28 35.28 35.28 35.28 35.28 35.28
12/27/2019 18:00 to 17:10 35.28 35.28 35.28 35.28 35.29 35.28
12/27/2019 17:00 to 16:10 35.28 35.28 35.28 35.29 35.28 35.28
12/27/2019 16:00 to 15:10 35.28 35.28 35.28 35.28 35.28 35.28
12/27/2019 15:00 to 14:10 35.28 35.28 35.28 35.28 35.28 35.28
12/27/2019 14:00 to 13:10 35.28 35.28 35.28 35.28 35.28 35.28
12/27/2019 13:00 to 12:10 35.28 35.28 35.28 35.28 35.28 35.28
12/27/2019 12:00 to 11:10 35.28 35.28 35.28 35.28 35.28 35.28
12/27/2019 11:00 to 10:10 35.28 35.28 35.28 35.28 35.28 35.28
12/27/2019 10:00 to 9:10 35.28 35.28 35.28 35.28 35.28 35.28
12/27/2019 09:00 to 8:10 35.28 35.28 35.28 35.28 35.28 35.28
12/27/2019 08:00 to 7:10 35.28 35.28 35.28 35.28 35.28 35.28
12/27/2019 07:00 to 6:10 35.28 35.28 35.28 35.28 35.28 35.29
12/27/2019 06:00 to 5:10 35.28 35.29 35.28 35.29 35.28 35.28
12/27/2019 05:00 to 4:10 35.29 35.29 35.29 35.29 35.28 35.28
12/27/2019 04:00 to 3:10 35.29 35.29 35.28 35.29 35.28 35.28
12/27/2019 03:00 to 2:10 35.28 35.28 35.29 35.29 35.28 35.29
12/27/2019 02:00 to 1:10 35.28 35.29 35.29 35.29 35.29 35.28
12/27/2019 01:00 to 0:10 35.28 35.28 35.28 35.28 35.28 35.28